< < Back
Terminal Aerodrome Forecast


Current Version              Previous Versions:   1  2  3  4  5  6  7  8  9  

Terminal Aerodrome Forecast

492
FTUS42 KFFC 231700
TAFFTY
TAF
KFTY 231737Z 2318/2418 07010G16KT P6SM BKN045
     FM232100 09012KT P6SM SCT045
     FM240100 09010KT P6SM SCT035
     FM241400 07010G16KT P6SM SCT025 SCT045
     FM241700 06010G18KT P6SM BKN040=



Latest METAR

277
SAUS70 KWBC 232000 RRI
MTRFTY
METAR KFTY 231953Z 09013G18KT 10SM SCT047 SCT055 25/13 A3017 RMK AO2
SLP211 T02500128


USA.gov is the U.S. government's official web portal to all federal, state and local government web resources and services.